createdAt,value
2022-08-28T00:00:14.129Z,62.22
2022-08-28T00:02:41.922Z,62.36
2022-08-28T00:05:11.635Z,62.40
2022-08-28T00:07:38.911Z,62.59
2022-08-28T00:10:09.333Z,62.41
2022-08-28T00:12:38.559Z,62.70
2022-08-28T00:15:10.528Z,62.41
2022-08-28T00:17:40.327Z,62.49
2022-08-28T00:20:10.309Z,62.67
2022-08-28T00:22:38.873Z,62.70
2022-08-28T00:25:09.319Z,62.95
2022-08-28T00:27:55.614Z,63.25
2022-08-28T00:30:43.602Z,63.33
2022-08-28T00:33:22.471Z,63.44
2022-08-28T00:35:51.124Z,63.64
2022-08-28T00:38:20.071Z,63.63
2022-08-28T00:40:51.894Z,63.48
2022-08-28T00:43:38.551Z,63.88
2022-08-28T00:46:20.075Z,64.02
2022-08-28T00:48:47.616Z,63.98
2022-08-28T00:51:36.830Z,63.85
2022-08-28T00:54:07.924Z,64.01
2022-08-28T00:56:38.215Z,64.25
2022-08-28T00:59:11.964Z,64.23
2022-08-28T01:01:39.440Z,64.23
2022-08-28T01:04:07.412Z,64.30
2022-08-28T01:06:36.146Z,64.61
2022-08-28T01:09:04.960Z,64.41
2022-08-28T01:11:32.634Z,64.84
2022-08-28T01:14:03.176Z,64.58
2022-08-28T01:16:33.913Z,64.56
2022-08-28T01:19:07.924Z,64.67
2022-08-28T01:21:50.726Z,64.59
2022-08-28T01:24:19.355Z,64.69
2022-08-28T01:26:47.256Z,64.77
2022-08-28T01:29:15.011Z,64.96
2022-08-28T01:31:43.025Z,65.09
2022-08-28T01:34:13.118Z,65.02
2022-08-28T01:36:42.237Z,65.12
2022-08-28T01:39:18.433Z,65.29
2022-08-28T01:41:51.863Z,65.00
2022-08-28T01:44:26.000Z,65.01
2022-08-28T01:46:56.961Z,65.09
2022-08-28T01:49:25.283Z,65.01
2022-08-28T01:51:52.446Z,65.17
2022-08-28T01:54:22.155Z,65.35
2022-08-28T01:56:49.641Z,65.60
2022-08-28T01:59:17.000Z,65.50
2022-08-28T02:01:44.814Z,65.81
2022-08-28T02:04:13.255Z,65.68
2022-08-28T02:06:43.535Z,65.80
2022-08-28T02:09:14.468Z,65.90
2022-08-28T02:11:46.793Z,65.94
2022-08-28T02:14:14.606Z,66.22
2022-08-28T02:16:41.970Z,66.08
2022-08-28T02:19:09.478Z,66.43
2022-08-28T02:21:36.568Z,66.12
2022-08-28T02:24:04.964Z,66.38
2022-08-28T02:26:33.339Z,66.46
2022-08-28T02:29:00.706Z,66.44
2022-08-28T02:31:27.998Z,66.48
2022-08-28T02:33:55.946Z,66.62
2022-08-28T02:36:24.011Z,66.70
2022-08-28T02:38:57.449Z,66.82
2022-08-28T02:41:25.306Z,66.82
2022-08-28T02:43:52.506Z,66.97
2022-08-28T02:46:19.595Z,67.04
2022-08-28T02:48:47.032Z,67.00
2022-08-28T02:51:14.966Z,67.32
2022-08-28T02:53:43.014Z,67.16
2022-08-28T02:56:10.500Z,67.23
2022-08-28T02:58:39.300Z,67.63
2022-08-28T03:01:10.927Z,67.52
2022-08-28T03:03:40.798Z,67.37
2022-08-28T03:06:09.182Z,67.75
2022-08-28T03:08:36.249Z,67.50
2022-08-28T03:11:03.295Z,67.59
2022-08-28T03:13:30.972Z,67.80
2022-08-28T03:15:58.350Z,67.61
2022-08-28T03:18:30.259Z,67.75
2022-08-28T03:20:57.604Z,67.64
2022-08-28T03:23:27.781Z,67.65
2022-08-28T03:26:14.856Z,67.91
2022-08-28T03:28:49.635Z,67.89
2022-08-28T03:31:20.961Z,68.29
2022-08-28T03:33:48.570Z,68.38
2022-08-28T03:36:24.032Z,68.42
2022-08-28T03:38:53.347Z,68.35
2022-08-28T03:41:23.597Z,68.29
2022-08-28T03:43:51.444Z,68.30
2022-08-28T03:46:23.692Z,68.78
2022-08-28T03:48:52.461Z,68.73
2022-08-28T03:51:29.356Z,68.56
2022-08-28T03:53:58.895Z,68.66
2022-08-28T03:56:29.028Z,68.93
2022-08-28T03:59:01.489Z,68.62
2022-08-28T04:01:28.891Z,68.92
2022-08-28T04:03:56.460Z,68.84
2022-08-28T04:06:23.654Z,69.19
2022-08-28T04:08:51.145Z,69.39
2022-08-28T04:11:18.624Z,69.53
2022-08-28T04:13:45.749Z,69.41
2022-08-28T04:16:19.497Z,69.41
2022-08-28T04:18:49.202Z,69.65
2022-08-28T04:21:27.166Z,69.47
2022-08-28T04:23:55.170Z,69.49
2022-08-28T04:26:25.882Z,69.42
2022-08-28T04:28:55.295Z,69.15
2022-08-28T04:31:31.607Z,69.62
2022-08-28T04:34:05.978Z,69.58
2022-08-28T04:36:36.114Z,69.67
2022-08-28T04:39:06.097Z,70.07
2022-08-28T04:41:33.115Z,70.10
2022-08-28T04:44:00.112Z,70.16
2022-08-28T04:46:30.971Z,70.42
2022-08-28T04:48:58.648Z,70.21
2022-08-28T04:51:26.432Z,70.18
2022-08-28T04:53:53.471Z,70.49
2022-08-28T04:56:20.547Z,70.31
2022-08-28T04:58:47.705Z,70.70
2022-08-28T05:01:20.024Z,70.78
2022-08-28T05:03:51.946Z,70.55
2022-08-28T05:06:18.945Z,70.96
2022-08-28T05:08:45.958Z,70.68
2022-08-28T05:11:33.475Z,70.62
2022-08-28T05:14:05.507Z,70.51
2022-08-28T05:16:39.468Z,70.65
2022-08-28T05:19:06.508Z,70.54
2022-08-28T05:21:33.571Z,70.96
2022-08-28T05:24:00.966Z,70.99
2022-08-28T05:26:29.844Z,71.02
2022-08-28T05:28:59.372Z,71.07
2022-08-28T05:31:29.081Z,70.71
2022-08-28T05:34:04.669Z,70.78
2022-08-28T05:36:36.787Z,71.12
2022-08-28T05:39:08.106Z,71.01
2022-08-28T05:41:35.979Z,70.89
2022-08-28T05:44:07.965Z,70.92
2022-08-28T05:46:37.591Z,70.94
2022-08-28T05:49:09.144Z,70.87
2022-08-28T05:51:40.204Z,71.25
2022-08-28T05:54:07.309Z,71.19
2022-08-28T05:56:38.660Z,71.00
2022-08-28T05:59:07.026Z,71.48
2022-08-28T06:01:39.808Z,71.25
2022-08-28T06:04:12.373Z,71.26
2022-08-28T06:06:41.174Z,71.13
2022-08-28T06:09:20.058Z,71.08
2022-08-28T06:11:48.037Z,71.39
2022-08-28T06:14:20.684Z,71.37
2022-08-28T06:16:52.989Z,71.26
2022-08-28T06:19:23.072Z,71.25
2022-08-28T06:21:54.287Z,71.21
2022-08-28T06:24:21.284Z,71.39
2022-08-28T06:26:48.329Z,71.28
2022-08-28T06:29:18.423Z,71.36
2022-08-28T06:31:54.833Z,71.27
2022-08-28T06:34:22.347Z,70.74
2022-08-28T06:36:53.635Z,70.79
2022-08-28T06:39:22.088Z,70.65
2022-08-28T06:41:49.367Z,70.71
2022-08-28T06:44:20.537Z,70.53
2022-08-28T06:46:51.563Z,70.42
2022-08-28T06:49:19.063Z,70.31
2022-08-28T06:51:46.142Z,70.36
2022-08-28T06:54:18.328Z,69.78
2022-08-28T06:56:48.893Z,69.63
2022-08-28T06:59:15.926Z,68.98
2022-08-28T07:01:43.102Z,68.78
2022-08-28T07:04:13.728Z,68.51
2022-08-28T07:06:46.855Z,68.31
2022-08-28T07:09:14.293Z,68.56
2022-08-28T07:11:43.704Z,67.92
2022-08-28T07:14:10.880Z,68.09
2022-08-28T07:16:39.379Z,67.54
2022-08-28T07:19:10.520Z,67.48
2022-08-28T07:21:41.940Z,67.37
2022-08-28T07:24:12.139Z,67.18
2022-08-28T07:26:41.163Z,66.65
2022-08-28T07:29:10.867Z,66.23
2022-08-28T07:31:44.031Z,66.26
2022-08-28T07:34:14.997Z,66.35
2022-08-28T07:36:43.153Z,65.85
2022-08-28T07:39:13.509Z,65.57
2022-08-28T07:41:42.909Z,65.72
2022-08-28T07:44:31.668Z,64.71
2022-08-28T07:47:04.189Z,64.65
2022-08-28T07:49:33.851Z,63.97
2022-08-28T07:52:02.273Z,63.73
2022-08-28T07:54:29.316Z,63.02
2022-08-28T07:56:56.288Z,62.80
2022-08-28T07:59:23.727Z,62.38
2022-08-28T08:01:52.246Z,62.41
2022-08-28T08:04:21.656Z,62.38
2022-08-28T08:06:51.457Z,62.09
2022-08-28T08:09:22.308Z,61.87
2022-08-28T08:11:49.763Z,61.17
2022-08-28T08:14:17.836Z,60.79
2022-08-28T08:16:46.197Z,59.84
2022-08-28T08:19:14.645Z,60.28
2022-08-28T08:21:45.707Z,60.36
2022-08-28T08:24:17.982Z,59.85
2022-08-28T08:27:00.366Z,59.04
2022-08-28T08:29:35.907Z,59.13
2022-08-28T08:32:07.935Z,59.02
2022-08-28T08:34:41.653Z,58.77
2022-08-28T08:37:10.489Z,58.50
2022-08-28T08:39:38.104Z,58.07
2022-08-28T08:42:18.660Z,57.91
2022-08-28T08:44:48.367Z,57.67
2022-08-28T08:47:49.271Z,57.28
2022-08-28T08:50:35.536Z,56.40
2022-08-28T08:53:46.829Z,56.44
2022-08-28T08:56:17.085Z,56.39
2022-08-28T08:58:52.485Z,56.18
2022-08-28T09:02:05.264Z,56.30
2022-08-28T09:04:40.877Z,56.27
2022-08-28T09:07:18.787Z,55.21
2022-08-28T09:09:53.714Z,55.07
2022-08-28T09:12:26.162Z,55.08
2022-08-28T09:15:08.792Z,54.62
2022-08-28T09:17:44.911Z,53.63
2022-08-28T09:20:18.444Z,53.62
2022-08-28T09:22:50.127Z,53.51
2022-08-28T09:25:44.972Z,54.13
2022-08-28T09:28:19.908Z,53.55
2022-08-28T09:30:57.582Z,53.21
2022-08-28T09:33:38.015Z,52.76
2022-08-28T09:36:34.337Z,52.76
2022-08-28T09:39:10.842Z,52.61
2022-08-28T09:42:37.222Z,52.74
2022-08-28T09:45:30.258Z,51.97
2022-08-28T09:47:58.962Z,51.82
2022-08-28T09:50:38.931Z,51.22
2022-08-28T09:53:11.740Z,50.94
2022-08-28T09:55:55.481Z,51.67
2022-08-28T09:58:28.061Z,51.28
2022-08-28T10:01:25.371Z,50.22
2022-08-28T10:04:35.294Z,49.49
2022-08-28T10:07:15.384Z,49.71
2022-08-28T10:09:51.085Z,49.93
2022-08-28T10:12:41.923Z,49.59
2022-08-28T10:15:49.584Z,49.45
2022-08-28T10:18:30.394Z,49.43
2022-08-28T10:21:32.096Z,49.13
2022-08-28T10:24:31.287Z,48.27
2022-08-28T10:27:38.338Z,48.11
2022-08-28T10:30:40.962Z,48.15
2022-08-28T10:33:45.644Z,48.24
2022-08-28T10:36:34.780Z,47.91
2022-08-28T10:39:59.124Z,47.99
2022-08-28T10:42:50.892Z,48.17
2022-08-28T10:45:23.806Z,48.45
2022-08-28T10:48:08.720Z,48.16
2022-08-28T10:50:50.647Z,48.35
2022-08-28T10:53:30.338Z,47.99
2022-08-28T10:56:10.614Z,48.09
2022-08-28T10:58:40.922Z,47.30
2022-08-28T11:01:23.709Z,47.18
2022-08-28T11:03:52.140Z,47.14
2022-08-28T11:06:39.029Z,47.13
2022-08-28T11:09:35.996Z,46.33
2022-08-28T11:12:36.997Z,46.66
2022-08-28T11:15:48.055Z,45.85
2022-08-28T11:18:15.800Z,46.18
2022-08-28T11:21:15.246Z,46.11
2022-08-28T11:24:00.147Z,45.93
2022-08-28T11:26:41.542Z,45.93
2022-08-28T11:29:08.904Z,45.70
2022-08-28T11:31:40.243Z,45.38
2022-08-28T11:34:07.818Z,44.78
2022-08-28T11:36:34.727Z,44.84
2022-08-28T11:39:13.632Z,44.49
2022-08-28T11:45:01.471Z,44.25
2022-08-28T11:47:56.640Z,44.07
2022-08-28T11:50:29.946Z,44.59
2022-08-28T11:53:36.551Z,44.90
2022-08-28T11:56:44.519Z,44.86
2022-08-28T11:59:35.343Z,44.96
2022-08-28T12:02:39.431Z,45.08
2022-08-28T12:05:15.697Z,44.27
2022-08-28T12:07:47.004Z,43.49
2022-08-28T12:10:22.736Z,43.29
2022-08-28T12:12:55.622Z,43.32
2022-08-28T12:15:28.682Z,42.49
2022-08-28T12:18:14.325Z,42.54
2022-08-28T12:21:04.246Z,42.39
2022-08-28T12:23:45.050Z,42.33
2022-08-28T12:26:41.772Z,43.01
2022-08-28T12:29:34.604Z,43.20
2022-08-28T12:32:26.537Z,43.85
2022-08-28T12:34:59.435Z,43.35
2022-08-28T12:37:42.926Z,43.00
2022-08-28T12:40:41.594Z,43.07
2022-08-28T12:43:15.597Z,42.81
2022-08-28T12:45:49.825Z,42.35
2022-08-28T12:48:20.925Z,42.53
2022-08-28T12:50:56.619Z,42.55
2022-08-28T12:53:26.136Z,41.85
2022-08-28T12:55:54.191Z,41.09
2022-08-28T12:58:39.928Z,40.49
2022-08-28T13:01:32.586Z,40.12
2022-08-28T13:04:19.875Z,39.91
2022-08-28T13:06:46.866Z,39.83
2022-08-28T13:09:18.734Z,39.47
2022-08-28T13:11:50.335Z,40.16
2022-08-28T13:14:44.173Z,39.77
2022-08-28T13:17:14.005Z,39.47
2022-08-28T13:19:41.482Z,39.40
2022-08-28T13:22:39.692Z,38.89
2022-08-28T13:25:08.183Z,39.36
2022-08-28T13:27:36.075Z,39.55
2022-08-28T13:30:20.981Z,39.77
2022-08-28T13:33:01.941Z,39.44
2022-08-28T13:35:38.917Z,39.64
2022-08-28T13:38:16.551Z,39.74
2022-08-28T13:41:03.630Z,39.69
2022-08-28T13:43:45.930Z,39.88
2022-08-28T13:46:13.911Z,39.07
2022-08-28T13:48:41.004Z,39.34
2022-08-28T13:51:14.295Z,39.21
2022-08-28T13:53:48.238Z,39.26
2022-08-28T13:56:17.358Z,38.86
2022-08-28T13:58:44.734Z,38.72
2022-08-28T14:01:44.579Z,39.06
2022-08-28T14:04:13.115Z,39.52
2022-08-28T14:06:44.051Z,38.98
2022-08-28T14:09:17.606Z,38.35
2022-08-28T14:11:49.730Z,38.63
2022-08-28T14:14:18.048Z,38.60
2022-08-28T14:16:45.797Z,39.04
2022-08-28T14:19:13.464Z,38.48
2022-08-28T14:21:41.438Z,37.66
2022-08-28T14:24:08.717Z,38.80
2022-08-28T14:26:36.229Z,37.98
2022-08-28T14:29:07.483Z,37.97
2022-08-28T14:31:36.892Z,38.35
2022-08-28T14:34:05.534Z,38.03
2022-08-28T14:36:33.271Z,37.50
2022-08-28T14:39:06.188Z,38.08
2022-08-28T14:41:34.725Z,38.23
2022-08-28T14:44:02.239Z,37.80
2022-08-28T14:46:35.936Z,38.67
2022-08-28T14:49:08.479Z,37.71
2022-08-28T14:51:38.431Z,38.22
2022-08-28T14:54:06.599Z,38.23
2022-08-28T14:56:34.367Z,38.19
2022-08-28T14:59:04.061Z,38.63
2022-08-28T15:01:40.358Z,39.04
2022-08-28T15:04:12.386Z,38.53
2022-08-28T15:06:42.513Z,38.71
2022-08-28T15:09:12.332Z,37.99
2022-08-28T15:11:40.134Z,37.78
2022-08-28T15:14:07.241Z,37.81
2022-08-28T15:16:39.238Z,38.49
2022-08-28T15:19:18.515Z,38.46
2022-08-28T15:21:51.454Z,38.76
2022-08-28T15:24:26.344Z,39.21
2022-08-28T15:26:53.909Z,38.46
2022-08-28T15:29:21.247Z,38.33
2022-08-28T15:31:50.318Z,38.28
2022-08-28T15:34:28.427Z,38.39
2022-08-28T15:36:57.352Z,38.22
2022-08-28T15:39:47.246Z,38.37
2022-08-28T15:42:15.339Z,38.36
2022-08-28T15:44:43.416Z,38.30
2022-08-28T15:47:12.622Z,38.61
2022-08-28T15:49:44.739Z,38.05
2022-08-28T15:52:18.262Z,38.38
2022-08-28T15:54:45.601Z,38.13
2022-08-28T15:57:14.661Z,38.07
2022-08-28T15:59:49.897Z,38.52
2022-08-28T16:02:23.364Z,38.47
2022-08-28T16:04:51.569Z,38.79
2022-08-28T16:07:21.576Z,38.17
2022-08-28T16:09:49.499Z,38.20
2022-08-28T16:12:17.278Z,37.66
2022-08-28T16:14:44.531Z,37.72
2022-08-28T16:17:11.744Z,37.32
2022-08-28T16:19:40.812Z,37.48
2022-08-28T16:22:10.567Z,36.87
2022-08-28T16:24:38.225Z,37.03
2022-08-28T16:29:52.947Z,37.67
2022-08-28T16:32:20.407Z,37.70
2022-08-28T16:34:47.886Z,37.74
2022-08-28T16:35:49.535Z,37.23
2022-08-28T16:37:18.602Z,37.34
2022-08-28T16:39:48.041Z,36.26
2022-08-28T16:42:15.557Z,36.66
2022-08-28T16:44:42.575Z,36.84
2022-08-28T16:47:09.869Z,36.36
2022-08-28T16:49:37.010Z,35.98
2022-08-28T16:52:04.136Z,35.83
2022-08-28T16:54:31.290Z,35.97
2022-08-28T16:56:58.482Z,35.75
2022-08-28T16:59:25.611Z,35.73
2022-08-28T17:01:53.094Z,36.32
2022-08-28T17:04:21.757Z,36.05
2022-08-28T17:06:49.258Z,35.84
2022-08-28T17:09:16.317Z,36.17
2022-08-28T17:11:43.369Z,36.48
2022-08-28T17:14:11.994Z,36.87
2022-08-28T17:16:39.187Z,36.64
2022-08-28T17:19:06.256Z,37.42
2022-08-28T17:21:52.003Z,38.04
2022-08-28T17:24:19.384Z,38.29
2022-08-28T17:26:47.252Z,38.78
2022-08-28T17:29:14.405Z,38.96
2022-08-28T17:31:41.774Z,39.06
2022-08-28T17:34:09.157Z,40.74
2022-08-28T17:36:38.322Z,41.38
2022-08-28T17:39:11.769Z,41.51
2022-08-28T17:41:41.097Z,41.19
2022-08-28T17:44:08.557Z,41.47
2022-08-28T17:46:38.038Z,41.92
2022-08-28T17:51:43.706Z,42.92
2022-08-28T17:54:14.004Z,43.13
2022-08-28T17:56:41.858Z,43.46
2022-08-28T17:59:12.566Z,43.95
2022-08-28T18:01:41.052Z,43.98
2022-08-28T18:04:09.068Z,43.80
2022-08-28T18:06:36.652Z,44.09
2022-08-28T18:09:06.003Z,44.38
2022-08-28T18:11:33.247Z,44.46
2022-08-28T18:14:00.822Z,44.72
2022-08-28T18:16:31.297Z,44.95
2022-08-28T18:19:00.344Z,45.70
2022-08-28T18:21:28.675Z,45.54
2022-08-28T18:23:56.046Z,45.94
2022-08-28T18:26:23.538Z,46.30
2022-08-28T18:28:51.229Z,46.45
2022-08-28T18:31:19.687Z,46.66
2022-08-28T18:33:46.774Z,46.80
2022-08-28T18:36:15.256Z,46.84
2022-08-28T18:38:43.587Z,46.76
2022-08-28T18:41:12.090Z,47.10
2022-08-28T18:43:39.503Z,46.76
2022-08-28T18:46:09.275Z,47.29
2022-08-28T18:48:37.953Z,47.49
2022-08-28T18:51:11.684Z,47.71
2022-08-28T18:53:39.335Z,47.76
2022-08-28T18:56:12.162Z,48.30
2022-08-28T18:58:41.763Z,48.58
2022-08-28T19:01:10.499Z,48.75
2022-08-28T19:03:37.893Z,48.84
2022-08-28T19:06:06.409Z,49.22
2022-08-28T19:08:35.346Z,49.23
2022-08-28T19:11:08.881Z,49.66
2022-08-28T19:13:36.704Z,49.76
2022-08-28T19:16:04.787Z,50.06
2022-08-28T19:18:31.919Z,50.10
2022-08-28T19:21:09.214Z,50.24
2022-08-28T19:23:37.184Z,50.12
2022-08-28T19:26:06.718Z,50.52
2022-08-28T19:28:35.479Z,50.68
2022-08-28T19:31:04.495Z,50.57
2022-08-28T19:33:32.289Z,50.76
2022-08-28T19:35:59.532Z,50.89
2022-08-28T19:38:26.568Z,51.11
2022-08-28T19:40:58.030Z,51.14
2022-08-28T19:43:25.371Z,51.43
2022-08-28T19:46:14.097Z,51.33
2022-08-28T19:48:48.190Z,51.47
2022-08-28T19:51:22.389Z,51.79
2022-08-28T19:53:58.348Z,51.87
2022-08-28T19:56:28.689Z,51.91
2022-08-28T19:58:59.106Z,52.00
2022-08-28T20:01:37.825Z,52.29
2022-08-28T20:04:07.941Z,52.42
2022-08-28T20:06:36.696Z,52.30
2022-08-28T20:09:08.315Z,52.35
2022-08-28T20:11:39.992Z,52.44
2022-08-28T20:14:07.233Z,52.82
2022-08-28T20:16:42.044Z,52.79
2022-08-28T20:19:11.450Z,53.12
2022-08-28T20:21:41.203Z,53.45
2022-08-28T20:24:13.768Z,53.29
2022-08-28T20:26:41.398Z,53.43
2022-08-28T20:29:10.015Z,53.38
2022-08-28T20:31:43.935Z,53.53
2022-08-28T20:34:12.600Z,53.68
2022-08-28T20:36:40.418Z,53.98
2022-08-28T20:39:09.404Z,53.87
2022-08-28T20:41:39.384Z,53.81
2022-08-28T20:44:08.043Z,53.75
2022-08-28T20:46:40.927Z,54.03
2022-08-28T20:49:12.054Z,54.22
2022-08-28T20:51:53.320Z,54.38
2022-08-28T20:54:28.684Z,54.68
2022-08-28T20:56:58.203Z,54.44
2022-08-28T20:59:28.907Z,55.06
2022-08-28T21:02:02.842Z,55.05
2022-08-28T21:04:30.471Z,55.35
2022-08-28T21:06:58.104Z,55.23
2022-08-28T21:09:43.963Z,55.50
2022-08-28T21:12:12.825Z,55.80
2022-08-28T21:14:40.329Z,55.74
2022-08-28T21:17:07.566Z,55.95
2022-08-28T21:19:40.151Z,55.66
2022-08-28T21:22:07.836Z,55.85
2022-08-28T21:24:35.627Z,55.91
2022-08-28T21:27:02.924Z,56.19
2022-08-28T21:29:30.423Z,56.32
2022-08-28T21:31:57.428Z,56.48
2022-08-28T21:34:24.761Z,56.36
2022-08-28T21:36:51.892Z,56.47
2022-08-28T21:39:23.479Z,56.61
2022-08-28T21:41:51.235Z,56.90
2022-08-28T21:44:18.667Z,56.79
2022-08-28T21:46:46.017Z,57.06
2022-08-28T21:49:13.203Z,57.10
2022-08-28T21:51:40.323Z,57.24
2022-08-28T21:54:07.637Z,57.18
2022-08-28T21:56:34.681Z,57.29
2022-08-28T21:59:02.140Z,57.39
2022-08-28T22:01:29.363Z,57.68
2022-08-28T22:03:57.109Z,57.65
2022-08-28T22:06:26.504Z,57.97
2022-08-28T22:08:55.143Z,57.99
2022-08-28T22:11:25.199Z,57.73
2022-08-28T22:13:54.656Z,58.31
2022-08-28T22:16:22.224Z,58.39
2022-08-28T22:18:49.912Z,58.82
2022-08-28T22:21:40.635Z,58.93
2022-08-28T22:24:10.427Z,58.94
2022-08-28T22:26:37.952Z,59.25
2022-08-28T22:29:05.883Z,59.51
2022-08-28T22:31:33.047Z,59.45
2022-08-28T22:34:00.078Z,59.59
2022-08-28T22:36:29.120Z,60.27
2022-08-28T22:38:56.873Z,60.37
2022-08-28T22:41:24.435Z,60.47
2022-08-28T22:43:53.585Z,60.77
2022-08-28T22:46:21.104Z,61.01
2022-08-28T22:48:48.815Z,61.13
2022-08-28T22:51:18.691Z,61.11
2022-08-28T22:53:47.371Z,61.25
2022-08-28T22:56:17.128Z,61.39
2022-08-28T22:58:44.504Z,61.34
2022-08-28T23:01:17.560Z,61.38
2022-08-28T23:03:45.641Z,61.88
2022-08-28T23:06:12.707Z,61.98
2022-08-28T23:08:39.844Z,62.23
2022-08-28T23:11:07.001Z,62.23
2022-08-28T23:13:34.550Z,62.52
2022-08-28T23:16:02.165Z,62.71
2022-08-28T23:18:41.593Z,62.61
2022-08-28T23:21:19.576Z,63.16
2022-08-28T23:23:47.046Z,63.01
2022-08-28T23:26:15.421Z,63.02
2022-08-28T23:28:43.160Z,63.58
2022-08-28T23:31:10.740Z,63.74
2022-08-28T23:33:37.793Z,63.71
2022-08-28T23:36:05.501Z,63.93
2022-08-28T23:38:34.828Z,64.00
2022-08-28T23:41:02.175Z,64.21
2022-08-28T23:43:30.005Z,64.29
2022-08-28T23:45:57.088Z,64.53
2022-08-28T23:48:25.012Z,64.68
2022-08-28T23:50:53.001Z,64.49
2022-08-28T23:53:20.432Z,64.85
2022-08-28T23:55:49.915Z,64.71
2022-08-28T23:58:20.773Z,64.82
